createdAt,value
2023-05-12T00:01:42.051Z,11.98
2023-05-12T00:03:45.575Z,11.98
2023-05-12T00:05:49.132Z,11.99
2023-05-12T00:07:52.545Z,11.99
2023-05-12T00:09:55.889Z,12.00
2023-05-12T00:12:00.733Z,11.99
2023-05-12T00:14:04.172Z,11.98
2023-05-12T00:16:07.987Z,12.00
2023-05-12T00:18:11.340Z,11.98
2023-05-12T00:20:14.699Z,11.99
2023-05-12T00:22:18.174Z,11.99
2023-05-12T00:24:21.544Z,12.00
2023-05-12T00:26:25.082Z,12.00
2023-05-12T00:28:30.840Z,12.01
2023-05-12T00:30:34.358Z,12.01
2023-05-12T00:32:37.816Z,12.01
2023-05-12T00:34:42.225Z,12.02
2023-05-12T00:36:45.570Z,12.02
2023-05-12T00:38:48.925Z,12.03
2023-05-12T00:40:52.345Z,12.05
2023-05-12T00:42:55.661Z,12.06
2023-05-12T00:45:00.437Z,12.06
2023-05-12T00:47:05.019Z,12.07
2023-05-12T00:49:09.034Z,12.08
2023-05-12T00:51:13.979Z,12.09
2023-05-12T00:53:17.428Z,12.11
2023-05-12T00:55:21.715Z,12.12
2023-05-12T00:57:27.952Z,12.14
2023-05-12T00:59:32.178Z,12.17
2023-05-12T01:01:37.951Z,12.18
2023-05-12T01:03:41.824Z,12.21
2023-05-12T01:05:51.300Z,12.22
2023-05-12T01:07:55.132Z,12.24
2023-05-12T01:09:59.220Z,12.25
2023-05-12T01:12:03.920Z,12.27
2023-05-12T01:14:08.913Z,12.29
2023-05-12T01:16:16.478Z,12.30
2023-05-12T01:18:22.770Z,12.30
2023-05-12T01:20:28.572Z,12.31
2023-05-12T01:22:33.909Z,12.31
2023-05-12T01:24:51.888Z,12.31
2023-05-12T01:26:57.167Z,12.31
2023-05-12T01:29:02.566Z,12.32
2023-05-12T01:31:07.555Z,12.32
2023-05-12T01:33:12.780Z,12.34
2023-05-12T01:35:16.170Z,12.35
2023-05-12T01:37:26.860Z,12.35
2023-05-12T01:39:31.071Z,12.36
2023-05-12T01:41:34.482Z,12.37
2023-05-12T01:43:39.202Z,12.36
2023-05-12T01:45:42.562Z,12.37
2023-05-12T01:47:46.585Z,12.37
2023-05-12T01:49:50.081Z,12.36
2023-05-12T01:51:53.438Z,12.35
2023-05-12T01:54:02.450Z,12.36
2023-05-12T01:56:09.299Z,12.36
2023-05-12T01:58:13.166Z,12.36
2023-05-12T02:00:18.777Z,12.35
2023-05-12T02:02:24.677Z,12.34
2023-05-12T02:04:28.188Z,12.35
2023-05-12T02:06:33.108Z,12.35
2023-05-12T02:08:36.688Z,12.35
2023-05-12T02:10:40.926Z,12.34
2023-05-12T02:12:44.343Z,12.34
2023-05-12T02:14:47.999Z,12.33
2023-05-12T02:16:53.084Z,12.33
2023-05-12T02:18:59.531Z,12.34
2023-05-12T02:21:03.313Z,12.33
2023-05-12T02:23:06.692Z,12.32
2023-05-12T02:25:10.767Z,12.32
2023-05-12T02:27:15.445Z,12.31
2023-05-12T02:29:19.028Z,12.30
2023-05-12T02:31:22.474Z,12.31
2023-05-12T02:33:27.454Z,12.31
2023-05-12T02:35:30.931Z,12.32
2023-05-12T02:37:34.324Z,12.31
2023-05-12T02:39:37.810Z,12.31
2023-05-12T02:41:41.248Z,12.33
2023-05-12T02:43:44.621Z,12.32
2023-05-12T02:45:48.357Z,12.31
2023-05-12T02:47:51.825Z,12.31
2023-05-12T02:49:56.984Z,12.28
2023-05-12T02:52:00.481Z,12.28
2023-05-12T02:54:04.057Z,12.27
2023-05-12T02:56:08.830Z,12.27
2023-05-12T02:58:12.336Z,12.27
2023-05-12T03:00:16.492Z,12.26
2023-05-12T03:02:20.007Z,12.25
2023-05-12T03:04:23.482Z,12.23
2023-05-12T03:06:28.282Z,12.23
2023-05-12T03:08:31.774Z,12.22
2023-05-12T03:10:35.383Z,12.21
2023-05-12T03:12:38.819Z,12.19
2023-05-12T03:14:42.260Z,12.18
2023-05-12T03:16:45.869Z,12.17
2023-05-12T03:18:50.312Z,12.16
2023-05-12T03:20:53.769Z,12.15
2023-05-12T03:23:00.450Z,12.16
2023-05-12T03:25:05.408Z,12.14
2023-05-12T03:27:09.000Z,12.14
2023-05-12T03:29:12.694Z,12.13
2023-05-12T03:31:16.551Z,12.13
2023-05-12T03:33:20.005Z,12.13
2023-05-12T03:35:23.451Z,12.13
2023-05-12T03:37:27.356Z,12.12
2023-05-12T03:39:32.446Z,12.12
2023-05-12T03:41:35.902Z,12.14
2023-05-12T03:43:39.268Z,12.14
2023-05-12T03:45:42.889Z,12.15
2023-05-12T03:47:46.405Z,12.16
2023-05-12T03:49:50.005Z,12.16
2023-05-12T03:51:53.591Z,12.16
2023-05-12T03:53:56.963Z,12.17
2023-05-12T03:56:05.379Z,12.17
2023-05-12T03:58:09.473Z,12.17
2023-05-12T04:00:14.029Z,12.18
2023-05-12T04:02:20.462Z,12.18
2023-05-12T04:04:23.930Z,12.19
2023-05-12T04:06:27.281Z,12.21
2023-05-12T04:08:30.976Z,12.23
2023-05-12T04:10:34.430Z,12.24
2023-05-12T04:12:39.356Z,12.27
2023-05-12T04:14:44.725Z,12.29
2023-05-12T04:16:48.525Z,12.31
2023-05-12T04:18:51.956Z,12.32
2023-05-12T04:20:55.565Z,12.35
2023-05-12T04:22:59.032Z,12.37
2023-05-12T04:25:02.406Z,12.39
2023-05-12T04:27:07.013Z,12.41
2023-05-12T04:29:13.388Z,12.43
2023-05-12T04:31:17.154Z,12.45
2023-05-12T04:33:20.990Z,12.48
2023-05-12T04:35:24.347Z,12.51
2023-05-12T04:37:27.727Z,12.54
2023-05-12T04:39:31.040Z,12.57
2023-05-12T04:41:35.884Z,12.60
2023-05-12T04:45:47.244Z,12.66
2023-05-12T04:47:51.015Z,12.67
2023-05-12T04:49:55.805Z,12.71
2023-05-12T04:51:59.196Z,12.73
2023-05-12T04:54:03.252Z,12.76
2023-05-12T04:56:08.217Z,12.79
2023-05-12T04:58:14.639Z,12.82
2023-05-12T05:00:18.944Z,12.85
2023-05-12T05:02:25.168Z,12.90
2023-05-12T05:04:29.095Z,12.92
2023-05-12T05:06:32.561Z,12.95
2023-05-12T05:08:37.023Z,12.98
2023-05-12T05:10:40.598Z,13.04
2023-05-12T05:12:44.051Z,13.08
2023-05-12T05:14:48.504Z,13.13
2023-05-12T05:16:52.004Z,13.17
2023-05-12T05:18:58.405Z,13.23
2023-05-12T05:21:02.491Z,13.27
2023-05-12T05:23:07.215Z,13.33
2023-05-12T05:25:11.354Z,13.36
2023-05-12T05:27:15.002Z,13.39
2023-05-12T05:29:18.396Z,13.43
2023-05-12T05:31:22.075Z,13.48
2023-05-12T05:33:25.821Z,13.54
2023-05-12T05:35:32.015Z,13.60
2023-05-12T05:37:36.069Z,13.66
2023-05-12T05:39:39.533Z,13.70
2023-05-12T05:41:42.899Z,13.72
2023-05-12T05:43:46.313Z,13.75
2023-05-12T05:45:50.467Z,13.80
2023-05-12T05:47:54.716Z,13.86
2023-05-12T05:49:58.627Z,13.91
2023-05-12T05:52:03.532Z,13.96
2023-05-12T05:54:07.534Z,14.01
2023-05-12T05:56:11.174Z,14.06
2023-05-12T05:58:15.285Z,14.12
2023-05-12T06:00:19.466Z,14.20
2023-05-12T06:02:27.437Z,14.27
2023-05-12T06:04:30.822Z,14.35
2023-05-12T06:06:34.586Z,14.42
2023-05-12T06:08:39.355Z,14.52
2023-05-12T06:10:42.699Z,14.60
2023-05-12T06:12:46.074Z,14.68
2023-05-12T06:14:49.448Z,14.78
2023-05-12T06:16:52.848Z,14.88
2023-05-12T06:18:56.339Z,14.96
2023-05-12T06:20:59.714Z,15.04
2023-05-12T06:23:03.154Z,15.15
2023-05-12T06:25:08.918Z,15.25
2023-05-12T06:27:12.320Z,15.33
2023-05-12T06:29:15.647Z,15.42
2023-05-12T06:31:19.242Z,15.52
2023-05-12T06:33:24.674Z,15.63
2023-05-12T06:35:28.199Z,15.73
2023-05-12T06:37:31.591Z,15.83
2023-05-12T06:39:34.970Z,15.90
2023-05-12T06:41:39.778Z,15.99
2023-05-12T06:43:43.281Z,16.07
2023-05-12T06:45:46.879Z,16.15
2023-05-12T06:47:50.347Z,16.24
2023-05-12T06:49:55.006Z,16.31
2023-05-12T06:51:58.455Z,16.40
2023-05-12T06:54:01.936Z,16.47
2023-05-12T06:56:07.768Z,16.53
2023-05-12T06:58:12.743Z,16.60
2023-05-12T07:00:18.591Z,16.68
2023-05-12T07:02:25.686Z,16.74
2023-05-12T07:04:29.778Z,16.82
2023-05-12T07:06:34.562Z,16.88
2023-05-12T07:08:37.907Z,16.97
2023-05-12T07:10:41.383Z,17.04
2023-05-12T07:12:44.780Z,17.12
2023-05-12T07:14:49.593Z,17.21
2023-05-12T07:16:53.113Z,17.30
2023-05-12T07:18:56.608Z,17.40
2023-05-12T07:21:00.147Z,17.47
2023-05-12T07:23:03.795Z,17.55
2023-05-12T07:25:08.163Z,17.63
2023-05-12T07:27:11.660Z,17.73
2023-05-12T07:29:15.142Z,17.79
2023-05-12T07:31:20.304Z,17.86
2023-05-12T07:33:23.733Z,17.93
2023-05-12T07:35:27.076Z,18.01
2023-05-12T07:37:30.620Z,18.08
2023-05-12T07:39:34.034Z,18.14
2023-05-12T07:41:39.557Z,18.21
2023-05-12T07:43:42.876Z,18.23
2023-05-12T07:45:46.816Z,18.24
2023-05-12T07:47:52.177Z,18.25
2023-05-12T07:49:55.860Z,18.26
2023-05-12T07:51:59.242Z,18.31
2023-05-12T07:54:02.679Z,18.37
2023-05-12T07:56:08.204Z,18.45
2023-05-12T07:58:11.776Z,18.52
2023-05-12T08:00:15.894Z,18.59
2023-05-12T08:02:20.772Z,18.66
2023-05-12T08:04:28.695Z,18.74
2023-05-12T08:06:32.358Z,18.80
2023-05-12T08:08:36.633Z,18.84
2023-05-12T08:10:40.001Z,18.86
2023-05-12T08:12:43.939Z,18.89
2023-05-12T08:14:47.457Z,18.93
2023-05-12T08:16:50.879Z,18.96
2023-05-12T08:18:56.876Z,19.01
2023-05-12T08:21:01.724Z,19.07
2023-05-12T08:23:05.102Z,19.16
2023-05-12T08:25:11.732Z,19.29
2023-05-12T08:27:15.944Z,19.43
2023-05-12T08:29:19.978Z,19.55
2023-05-12T08:31:23.617Z,19.67
2023-05-12T08:33:27.085Z,19.79
2023-05-12T08:35:30.830Z,19.87
2023-05-12T08:37:35.728Z,19.89
2023-05-12T08:39:39.152Z,19.92
2023-05-12T08:41:45.157Z,19.94
2023-05-12T08:43:53.299Z,19.98
2023-05-12T08:45:58.503Z,20.05
2023-05-12T08:48:02.326Z,20.10
2023-05-12T08:50:07.089Z,20.15
2023-05-12T08:52:11.362Z,20.20
2023-05-12T08:54:18.027Z,20.30
2023-05-12T08:58:40.390Z,20.55
2023-05-12T09:00:47.011Z,20.60
2023-05-12T09:02:54.461Z,20.64
2023-05-12T09:04:58.410Z,20.75
2023-05-12T09:07:01.846Z,20.80
2023-05-12T09:09:05.280Z,20.83
2023-05-12T09:11:13.184Z,20.86
2023-05-12T09:13:21.381Z,20.88
2023-05-12T09:15:45.302Z,20.94
2023-05-12T09:17:48.706Z,21.01
2023-05-12T09:19:52.100Z,21.05
2023-05-12T09:21:56.158Z,21.09
2023-05-12T09:24:00.950Z,21.14
2023-05-12T09:26:04.442Z,21.17
2023-05-12T09:28:09.865Z,21.20
2023-05-12T09:30:14.434Z,21.21
2023-05-12T09:32:17.880Z,21.26
2023-05-12T09:34:28.876Z,21.36
2023-05-12T09:36:32.435Z,21.46
2023-05-12T09:38:35.782Z,21.55
2023-05-12T09:40:39.748Z,21.63
2023-05-12T09:42:43.973Z,21.71
2023-05-12T09:44:48.908Z,21.79
2023-05-12T09:46:52.856Z,21.87
2023-05-12T09:48:57.731Z,21.97
2023-05-12T09:51:01.084Z,22.09
2023-05-12T09:53:08.050Z,22.14
2023-05-12T09:55:13.371Z,22.16
2023-05-12T09:57:17.705Z,22.18
2023-05-12T09:59:26.765Z,22.24
2023-05-12T10:01:32.722Z,22.29
2023-05-12T10:03:37.641Z,22.33
2023-05-12T10:05:48.789Z,22.32
2023-05-12T10:07:55.406Z,22.31
2023-05-12T10:10:02.320Z,22.33
2023-05-12T10:12:06.423Z,22.36
2023-05-12T10:14:10.108Z,22.40
2023-05-12T10:16:14.091Z,22.45
2023-05-12T10:18:19.515Z,22.52
2023-05-12T10:20:23.066Z,22.62
2023-05-12T10:22:27.884Z,22.75
2023-05-12T10:24:31.361Z,22.88
2023-05-12T10:26:35.061Z,22.99
2023-05-12T10:28:38.494Z,23.00
2023-05-12T10:30:43.404Z,22.86
2023-05-12T10:32:47.023Z,22.69
2023-05-12T10:34:52.154Z,22.67
2023-05-12T10:36:55.528Z,22.75
2023-05-12T10:39:07.067Z,22.75
2023-05-12T10:41:11.130Z,22.73
2023-05-12T10:43:23.154Z,22.76
2023-05-12T10:45:26.856Z,22.82
2023-05-12T10:47:38.815Z,22.82
2023-05-12T10:49:43.500Z,22.77
2023-05-12T10:51:51.160Z,22.68
2023-05-12T10:53:58.105Z,22.60
2023-05-12T10:56:05.680Z,22.55
2023-05-12T10:58:12.304Z,22.52
2023-05-12T11:00:17.259Z,22.59
2023-05-12T11:02:27.445Z,22.76
2023-05-12T11:04:40.826Z,22.94
2023-05-12T11:06:46.981Z,23.02
2023-05-12T11:08:53.303Z,22.97
2023-05-12T11:10:59.192Z,22.87
2023-05-12T11:13:03.981Z,22.76
2023-05-12T11:15:08.427Z,22.66
2023-05-12T11:17:12.031Z,22.55
2023-05-12T11:19:15.494Z,22.47
2023-05-12T11:21:18.983Z,22.42
2023-05-12T11:23:27.369Z,22.40
2023-05-12T11:25:32.167Z,22.37
2023-05-12T11:27:35.935Z,22.35
2023-05-12T11:29:40.179Z,22.39
2023-05-12T11:31:47.914Z,22.47
2023-05-12T11:33:58.676Z,22.63
2023-05-12T11:36:08.394Z,22.84
2023-05-12T11:38:16.989Z,23.03
2023-05-12T11:40:21.909Z,23.19
2023-05-12T11:42:26.775Z,23.28
2023-05-12T11:44:30.438Z,23.25
2023-05-12T11:46:33.794Z,23.18
2023-05-12T11:48:37.131Z,23.16
2023-05-12T11:50:41.711Z,23.22
2023-05-12T11:52:46.447Z,23.38
2023-05-12T11:54:50.821Z,23.57
2023-05-12T11:56:55.582Z,23.72
2023-05-12T11:59:00.530Z,23.87
2023-05-12T12:01:10.741Z,23.97
2023-05-12T12:03:16.589Z,23.92
2023-05-12T12:05:21.410Z,23.73
2023-05-12T12:07:32.040Z,23.48
2023-05-12T12:09:36.537Z,23.27
2023-05-12T12:11:39.912Z,23.21
2023-05-12T12:13:50.279Z,23.27
2023-05-12T12:15:55.088Z,23.40
2023-05-12T12:17:58.844Z,23.52
2023-05-12T12:20:02.334Z,23.63
2023-05-12T12:22:06.273Z,23.70
2023-05-12T12:24:09.791Z,23.79
2023-05-12T12:26:14.327Z,23.89
2023-05-12T12:28:17.623Z,23.83
2023-05-12T12:30:21.391Z,23.67
2023-05-12T12:32:26.160Z,23.52
2023-05-12T12:34:29.708Z,23.45
2023-05-12T12:36:33.418Z,23.49
2023-05-12T12:38:36.863Z,23.57
2023-05-12T12:40:40.425Z,23.67
2023-05-12T12:42:43.729Z,23.77
2023-05-12T12:44:50.270Z,23.87
2023-05-12T12:46:53.779Z,23.97
2023-05-12T12:48:59.246Z,24.03
2023-05-12T12:51:02.775Z,24.11
2023-05-12T12:53:06.341Z,24.18
2023-05-12T12:55:10.448Z,24.27
2023-05-12T12:57:13.813Z,24.39
2023-05-12T12:59:17.208Z,24.52
2023-05-12T13:01:20.642Z,24.69
2023-05-12T13:03:25.081Z,24.89
2023-05-12T13:05:29.853Z,25.10
2023-05-12T13:07:33.437Z,25.29
2023-05-12T13:09:36.810Z,25.42
2023-05-12T13:11:40.626Z,25.35
2023-05-12T13:13:44.020Z,25.21
2023-05-12T13:15:47.533Z,25.16
2023-05-12T13:17:51.900Z,25.24
2023-05-12T13:19:59.278Z,25.33
2023-05-12T13:22:04.368Z,25.41
2023-05-12T13:24:07.806Z,25.53
2023-05-12T13:26:11.103Z,25.70
2023-05-12T13:28:14.457Z,25.95
2023-05-12T13:30:17.795Z,26.20
2023-05-12T13:32:21.802Z,26.35
2023-05-12T13:34:25.196Z,26.42
2023-05-12T13:36:28.582Z,26.47
2023-05-12T13:38:33.940Z,26.57
2023-05-12T13:40:37.486Z,26.64
2023-05-12T13:42:40.824Z,26.73
2023-05-12T13:44:44.205Z,26.70
2023-05-12T13:46:47.634Z,26.68
2023-05-12T13:48:52.437Z,26.67
2023-05-12T13:50:55.919Z,26.85
2023-05-12T13:52:59.269Z,27.08
2023-05-12T13:55:04.386Z,27.24
2023-05-12T13:57:07.906Z,27.40
2023-05-12T13:59:11.233Z,27.57
2023-05-12T14:01:14.678Z,27.69
2023-05-12T14:03:18.179Z,27.78
2023-05-12T14:05:22.133Z,27.86
2023-05-12T14:07:25.692Z,27.96
2023-05-12T14:09:29.001Z,28.09
2023-05-12T14:11:34.596Z,28.18
2023-05-12T14:13:38.217Z,28.35
2023-05-12T14:15:48.682Z,28.45
2023-05-12T14:17:54.666Z,28.50
2023-05-12T14:19:58.202Z,28.47
2023-05-12T14:22:03.206Z,28.43
2023-05-12T14:24:08.692Z,28.41
2023-05-12T14:26:12.090Z,28.44
2023-05-12T14:28:16.884Z,28.53
2023-05-12T14:30:21.833Z,28.52
2023-05-12T14:32:25.213Z,28.43
2023-05-12T14:34:28.633Z,28.25
2023-05-12T14:36:32.209Z,28.12
2023-05-12T14:38:35.789Z,28.07
2023-05-12T14:40:40.328Z,28.09
2023-05-12T14:42:43.798Z,28.09
2023-05-12T14:44:48.554Z,28.10
2023-05-12T14:46:51.854Z,28.08
2023-05-12T14:48:55.451Z,28.07
2023-05-12T14:50:59.071Z,28.03
2023-05-12T14:53:02.559Z,27.96
2023-05-12T14:55:11.583Z,27.97
2023-05-12T14:57:15.120Z,27.98
2023-05-12T14:59:18.512Z,28.04
2023-05-12T15:01:23.639Z,28.17
2023-05-12T15:03:27.096Z,28.20
2023-05-12T15:05:52.773Z,28.18
2023-05-12T15:07:54.367Z,28.01
2023-05-12T15:09:57.670Z,27.88
2023-05-12T15:12:02.205Z,27.77
2023-05-12T15:14:05.833Z,27.72
2023-05-12T15:16:09.321Z,27.73
2023-05-12T15:18:14.286Z,27.73
2023-05-12T15:20:17.702Z,27.72
2023-05-12T15:22:21.145Z,27.65
2023-05-12T15:24:24.585Z,27.57
2023-05-12T15:26:33.818Z,27.49
2023-05-12T15:28:38.524Z,27.41
2023-05-12T15:30:41.876Z,27.29
2023-05-12T15:32:45.314Z,27.21
2023-05-12T15:34:49.997Z,27.08
2023-05-12T15:36:53.336Z,26.97
2023-05-12T15:38:56.726Z,26.96
2023-05-12T15:41:00.341Z,26.92
2023-05-12T15:43:05.040Z,26.85
2023-05-12T15:45:09.742Z,26.84
2023-05-12T15:47:13.034Z,26.96
2023-05-12T15:49:16.366Z,27.11
2023-05-12T15:51:21.320Z,27.19
2023-05-12T15:53:24.698Z,27.10
2023-05-12T15:55:28.228Z,27.04
2023-05-12T15:57:31.801Z,27.04
2023-05-12T15:59:35.790Z,26.94
2023-05-12T16:01:40.235Z,26.78
2023-05-12T16:03:44.780Z,26.56
2023-05-12T16:05:49.029Z,26.31
2023-05-12T16:07:54.972Z,26.01
2023-05-12T16:09:59.617Z,25.73
2023-05-12T16:12:03.700Z,25.50
2023-05-12T16:14:07.806Z,25.30
2023-05-12T16:16:12.354Z,25.15
2023-05-12T16:18:17.149Z,24.97
2023-05-12T16:20:22.202Z,24.68
2023-05-12T16:22:27.109Z,24.39
2023-05-12T16:24:33.637Z,24.13
2023-05-12T16:26:42.113Z,23.96
2023-05-12T16:28:46.062Z,23.88
2023-05-12T16:30:50.530Z,23.83
2023-05-12T16:32:55.623Z,23.80
2023-05-12T16:35:01.332Z,23.71
2023-05-12T16:37:10.044Z,23.58
2023-05-12T16:39:14.855Z,23.46
2023-05-12T16:41:20.855Z,23.37
2023-05-12T16:43:24.887Z,23.30
2023-05-12T16:45:29.170Z,23.24
2023-05-12T16:47:33.119Z,23.18
2023-05-12T16:49:40.693Z,23.12
2023-05-12T16:51:44.649Z,23.07
2023-05-12T16:53:48.187Z,23.04
2023-05-12T16:55:54.996Z,23.01
2023-05-12T16:58:00.572Z,22.96
2023-05-12T17:00:09.710Z,22.87
2023-05-12T17:02:14.040Z,22.79
2023-05-12T17:04:18.529Z,22.69
2023-05-12T17:06:23.203Z,22.62
2023-05-12T17:08:27.463Z,22.59
2023-05-12T17:10:33.243Z,22.53
2023-05-12T17:12:38.117Z,22.51
2023-05-12T17:14:47.872Z,22.46
2023-05-12T17:16:56.782Z,22.37
2023-05-12T17:21:08.900Z,22.20
2023-05-12T17:23:12.920Z,22.12
2023-05-12T17:25:17.093Z,22.02
2023-05-12T17:27:23.804Z,21.92
2023-05-12T17:29:28.608Z,21.82
2023-05-12T17:31:34.145Z,21.68
2023-05-12T17:33:38.213Z,21.54
2023-05-12T17:35:41.980Z,21.42
2023-05-12T17:37:45.555Z,21.32
2023-05-12T17:39:50.639Z,21.26
2023-05-12T17:41:54.169Z,21.22
2023-05-12T17:43:57.742Z,21.20
2023-05-12T17:46:01.728Z,21.17
2023-05-12T17:48:07.219Z,21.12
2023-05-12T17:50:12.271Z,21.08
2023-05-12T17:52:15.790Z,21.01
2023-05-12T17:54:19.267Z,20.91
2023-05-12T17:56:22.815Z,20.80
2023-05-12T17:58:26.491Z,20.67
2023-05-12T18:00:29.984Z,20.57
2023-05-12T18:02:33.605Z,20.46
2023-05-12T18:04:38.772Z,20.37
2023-05-12T18:06:42.552Z,20.32
2023-05-12T18:08:46.854Z,20.27
2023-05-12T18:10:50.491Z,20.25
2023-05-12T18:12:55.538Z,20.32
2023-05-12T18:14:59.049Z,20.45
2023-05-12T18:17:03.182Z,20.55
2023-05-12T18:19:07.723Z,20.60
2023-05-12T18:21:12.783Z,20.60
2023-05-12T18:23:16.134Z,20.55
2023-05-12T18:25:20.530Z,20.55
2023-05-12T18:27:24.455Z,20.57
2023-05-12T18:29:28.058Z,20.60
2023-05-12T18:31:31.625Z,20.62
2023-05-12T18:33:36.002Z,20.60
2023-05-12T18:35:39.392Z,20.47
2023-05-12T18:37:44.362Z,20.27
2023-05-12T18:39:47.712Z,20.07
2023-05-12T18:41:51.883Z,19.83
2023-05-12T18:43:55.395Z,19.60
2023-05-12T18:45:58.962Z,19.36
2023-05-12T18:48:02.371Z,19.15
2023-05-12T18:50:06.898Z,18.95
2023-05-12T18:52:10.522Z,18.75
2023-05-12T18:54:15.286Z,18.56
2023-05-12T18:56:18.773Z,18.38
2023-05-12T18:58:22.213Z,18.22
2023-05-12T19:00:27.774Z,18.09
2023-05-12T19:02:31.216Z,17.95
2023-05-12T19:04:34.684Z,17.85
2023-05-12T19:06:38.150Z,17.73
2023-05-12T19:08:41.742Z,17.62
2023-05-12T19:10:47.388Z,17.53
2023-05-12T19:12:51.644Z,17.43
2023-05-12T19:14:55.709Z,17.34
2023-05-12T19:17:00.035Z,17.24
2023-05-12T19:19:04.996Z,17.16
2023-05-12T19:21:10.598Z,17.08
2023-05-12T19:23:14.606Z,17.00
2023-05-12T19:25:20.126Z,16.92
2023-05-12T19:27:28.234Z,16.85
2023-05-12T19:29:31.682Z,16.79
2023-05-12T19:31:36.672Z,16.72
2023-05-12T19:33:41.149Z,16.67
2023-05-12T19:35:48.122Z,16.59
2023-05-12T19:37:53.423Z,16.52
2023-05-12T19:40:02.546Z,16.45
2023-05-12T19:42:10.225Z,16.40
2023-05-12T19:44:17.901Z,16.36
2023-05-12T19:46:21.503Z,16.29
2023-05-12T19:48:25.032Z,16.27
2023-05-12T19:50:29.880Z,16.22
2023-05-12T19:52:34.520Z,16.18
2023-05-12T19:54:38.258Z,16.14
2023-05-12T19:56:41.896Z,16.08
2023-05-12T19:58:45.477Z,16.06
2023-05-12T20:00:50.932Z,16.01
2023-05-12T20:02:54.540Z,15.97
2023-05-12T20:05:00.490Z,15.91
2023-05-12T20:07:03.940Z,15.85
2023-05-12T20:09:07.964Z,15.81
2023-05-12T20:11:11.574Z,15.74
2023-05-12T20:13:15.031Z,15.68
2023-05-12T20:15:18.980Z,15.62
2023-05-12T20:17:23.929Z,15.56
2023-05-12T20:19:27.903Z,15.51
2023-05-12T20:21:32.493Z,15.46
2023-05-12T20:23:36.306Z,15.40
2023-05-12T20:25:39.710Z,15.33
2023-05-12T20:27:46.570Z,15.26
2023-05-12T20:29:49.970Z,15.19
2023-05-12T20:31:53.783Z,15.14
2023-05-12T20:33:58.687Z,15.07
2023-05-12T20:36:02.249Z,15.02
2023-05-12T20:38:05.652Z,14.96
2023-05-12T20:40:10.810Z,14.91
2023-05-12T20:42:14.260Z,14.87
2023-05-12T20:44:17.754Z,14.82
2023-05-12T20:46:21.376Z,14.78
2023-05-12T20:48:24.819Z,14.74
2023-05-12T20:50:29.608Z,14.70
2023-05-12T20:52:33.772Z,14.66
2023-05-12T20:54:37.148Z,14.63
2023-05-12T20:56:40.529Z,14.58
2023-05-12T20:58:43.978Z,14.54
2023-05-12T21:00:47.338Z,14.48
2023-05-12T21:02:52.356Z,14.46
2023-05-12T21:04:56.119Z,14.43
2023-05-12T21:07:00.850Z,14.39
2023-05-12T21:09:05.056Z,14.34
2023-05-12T21:11:16.129Z,14.30
2023-05-12T21:13:19.580Z,14.28
2023-05-12T21:15:24.795Z,14.25
2023-05-12T21:17:29.399Z,14.21
2023-05-12T21:19:32.914Z,14.18
2023-05-12T21:21:36.429Z,14.14
2023-05-12T21:23:41.219Z,14.10
2023-05-12T21:25:44.640Z,14.06
2023-05-12T21:27:48.068Z,14.02
2023-05-12T21:29:51.449Z,13.99
2023-05-12T21:31:56.695Z,13.96
2023-05-12T21:34:00.474Z,13.92
2023-05-12T21:36:03.906Z,13.88
2023-05-12T21:38:08.606Z,13.84
2023-05-12T21:40:14.802Z,13.78
2023-05-12T21:42:18.279Z,13.73
2023-05-12T21:44:21.739Z,13.69
2023-05-12T21:46:25.247Z,13.66
2023-05-12T21:48:28.605Z,13.62
2023-05-12T21:50:31.955Z,13.58
2023-05-12T21:52:35.339Z,13.54
2023-05-12T21:54:38.775Z,13.51
2023-05-12T21:56:43.563Z,13.48
2023-05-12T21:58:47.263Z,13.45
2023-05-12T22:00:52.399Z,13.41
2023-05-12T22:02:55.996Z,13.37
2023-05-12T22:04:59.556Z,13.35
2023-05-12T22:07:03.010Z,13.31
2023-05-12T22:09:06.393Z,13.28
2023-05-12T22:11:10.179Z,13.23
2023-05-12T22:13:14.975Z,13.20
2023-05-12T22:15:18.732Z,13.16
2023-05-12T22:17:22.288Z,13.11
2023-05-12T22:19:25.790Z,13.06
2023-05-12T22:21:29.814Z,13.04
2023-05-12T22:23:33.230Z,13.02
2023-05-12T22:25:38.004Z,12.98
2023-05-12T22:27:41.391Z,12.94
2023-05-12T22:29:46.170Z,12.92
2023-05-12T22:31:49.587Z,12.89
2023-05-12T22:33:52.965Z,12.86
2023-05-12T22:35:56.322Z,12.83
2023-05-12T22:37:59.765Z,12.80
2023-05-12T22:40:03.943Z,12.76
2023-05-12T22:42:07.901Z,12.73
2023-05-12T22:44:11.614Z,12.68
2023-05-12T22:46:16.465Z,12.64
2023-05-12T22:48:20.185Z,12.60
2023-05-12T22:50:24.184Z,12.53
2023-05-12T22:52:28.171Z,12.49
2023-05-12T22:54:31.559Z,12.45
2023-05-12T22:56:34.944Z,12.40
2023-05-12T22:58:38.288Z,12.37
2023-05-12T23:00:41.759Z,12.32
2023-05-12T23:02:46.560Z,12.28
2023-05-12T23:04:49.951Z,12.24
2023-05-12T23:06:53.334Z,12.22
2023-05-12T23:08:56.959Z,12.17
2023-05-12T23:11:00.295Z,12.15
2023-05-12T23:13:03.822Z,12.11
2023-05-12T23:15:08.630Z,12.07
2023-05-12T23:17:12.122Z,12.02
2023-05-12T23:19:16.920Z,11.98
2023-05-12T23:21:20.285Z,11.94
2023-05-12T23:23:23.650Z,11.88
2023-05-12T23:25:26.907Z,11.84
2023-05-12T23:27:30.055Z,11.80
2023-05-12T23:29:34.523Z,11.75
2023-05-12T23:31:37.906Z,11.70
2023-05-12T23:33:41.265Z,11.66
2023-05-12T23:35:46.054Z,11.60
2023-05-12T23:37:49.361Z,11.54
2023-05-12T23:39:52.650Z,11.50
2023-05-12T23:41:55.930Z,11.46
2023-05-12T23:43:59.219Z,11.42
2023-05-12T23:46:02.523Z,11.38
2023-05-12T23:48:06.446Z,11.35
2023-05-12T23:50:10.378Z,11.30
2023-05-12T23:52:15.086Z,11.26
2023-05-12T23:54:18.368Z,11.21
2023-05-12T23:56:21.748Z,11.17
2023-05-12T23:58:24.959Z,11.13
